Time;durP1;ratioP1;P1;durP2;ratioP2;P2;SDS_P1;SDS_P2;PMS_P1;PMS_P2;Temp;Humidity;BMP_temperature;BMP_pressure;BME280_temperature;BME280_humidity;BME280_pressure;Samples;Min_cycle;Max_cycle;Signal;HPM_P1;HPM_P2
2021/07/23 00:00:28;;;;;;;5.38;3.30;;;15.90;99.90;;;;;;6192491;23;20048;-84
2021/07/23 00:02:58;;;;;;;4.60;3.40;;;15.90;99.90;;;;;;6191515;23;20001;-85
2021/07/23 00:05:26;;;;;;;5.75;3.42;;;15.80;99.90;;;;;;6189868;23;20092;-85
2021/07/23 00:07:53;;;;;;;4.82;3.45;;;15.80;99.90;;;;;;6164764;23;20012;-85
2021/07/23 00:10:21;;;;;;;4.65;3.00;;;15.80;99.90;;;;;;6188834;23;20483;-84
2021/07/23 00:12:53;;;;;;;5.18;3.10;;;15.80;99.90;;;;;;6192508;23;20001;-86
2021/07/23 00:15:19;;;;;;;4.40;3.15;;;15.70;99.90;;;;;;6193181;23;20016;-85
2021/07/23 00:17:51;;;;;;;4.47;3.53;;;15.70;99.90;;;;;;6192815;23;20052;-86
2021/07/23 00:20:17;;;;;;;4.88;3.08;;;15.70;99.90;;;;;;6189856;23;20066;-85
2021/07/23 00:22:43;;;;;;;5.07;3.17;;;15.70;99.90;;;;;;6189792;23;20041;-85
2021/07/23 00:25:09;;;;;;;5.75;3.25;;;15.60;99.90;;;;;;6191152;23;20102;-86
2021/07/23 00:27:35;;;;;;;4.97;3.10;;;15.60;99.90;;;;;;6189972;23;19997;-83
2021/07/23 00:30:01;;;;;;;5.95;3.35;;;15.60;99.90;;;;;;6164853;23;20362;-84
2021/07/23 00:32:26;;;;;;;3.80;2.78;;;15.60;99.90;;;;;;6164393;23;20012;-84
2021/07/23 00:34:53;;;;;;;4.18;2.85;;;15.50;99.90;;;;;;6190806;23;20027;-85
2021/07/23 00:37:19;;;;;;;6.50;3.50;;;15.50;99.90;;;;;;6165327;23;20011;-84
2021/07/23 00:39:45;;;;;;;3.80;2.50;;;15.50;99.90;;;;;;6139761;23;20025;-84
2021/07/23 00:42:15;;;;;;;4.25;2.70;;;15.50;99.90;;;;;;6191413;23;20001;-84
2021/07/23 00:44:42;;;;;;;3.97;2.80;;;15.40;99.90;;;;;;6164568;23;20009;-85
2021/07/23 00:47:10;;;;;;;3.97;3.00;;;15.40;99.90;;;;;;6189135;23;20005;-86
2021/07/23 00:49:37;;;;;;;4.30;3.03;;;15.40;99.90;;;;;;6189107;23;20422;-86
2021/07/23 00:52:05;;;;;;;4.38;2.67;;;15.40;99.90;;;;;;6190826;23;20035;-84
2021/07/23 00:54:31;;;;;;;4.57;3.13;;;15.30;99.90;;;;;;6196753;23;20005;-83
2021/07/23 00:57:00;;;;;;;4.85;2.90;;;15.40;99.90;;;;;;6171922;23;20330;-84
2021/07/23 00:59:30;;;;;;;3.88;2.72;;;15.30;99.90;;;;;;6166645;23;20011;-84
2021/07/23 01:01:59;;;;;;;4.35;2.63;;;15.30;99.90;;;;;;6191463;23;20083;-85
2021/07/23 01:04:25;;;;;;;4.05;2.78;;;15.30;99.90;;;;;;6188840;23;20008;-85
2021/07/23 01:06:50;;;;;;;4.55;3.08;;;15.30;99.90;;;;;;6189087;23;20005;-85
2021/07/23 01:09:20;;;;;;;3.67;2.70;;;15.20;99.90;;;;;;6189782;23;20009;-84
2021/07/23 01:11:46;;;;;;;3.03;2.35;;;15.20;99.90;;;;;;6190571;23;20005;-85
2021/07/23 01:14:13;;;;;;;4.70;2.60;;;15.20;99.90;;;;;;6189530;23;20013;-84
2021/07/23 01:16:39;;;;;;;4.03;2.70;;;15.20;99.90;;;;;;6189590;23;20005;-82
2021/07/23 01:19:10;;;;;;;3.55;2.55;;;15.10;99.90;;;;;;6187813;23;20025;-84
2021/07/23 01:21:42;;;;;;;5.78;3.35;;;15.10;99.90;;;;;;6162794;23;20164;-83
2021/07/23 01:24:16;;;;;;;3.45;2.42;;;15.10;99.90;;;;;;6189468;23;20027;-84
2021/07/23 01:26:44;;;;;;;4.15;3.10;;;15.00;99.90;;;;;;6189272;23;20150;-81
2021/07/23 01:29:14;;;;;;;4.57;2.83;;;15.00;99.90;;;;;;6190572;23;20032;-84
2021/07/23 01:31:41;;;;;;;4.40;2.85;;;15.00;99.90;;;;;;6190793;23;20032;-82
2021/07/23 01:34:08;;;;;;;3.90;2.75;;;14.90;99.90;;;;;;6191478;23;20003;-82
2021/07/23 01:36:34;;;;;;;4.43;2.83;;;14.90;99.90;;;;;;6189579;23;20005;-81
2021/07/23 01:39:02;;;;;;;4.65;2.60;;;14.90;99.90;;;;;;6145955;23;20012;-81
2021/07/23 01:41:28;;;;;;;3.95;2.50;;;14.90;99.90;;;;;;6171126;23;20005;-80
2021/07/23 01:43:56;;;;;;;3.58;2.70;;;14.90;99.90;;;;;;6203919;23;20011;-82
2021/07/23 01:46:24;;;;;;;4.35;3.13;;;14.90;99.90;;;;;;6195726;23;20009;-81
2021/07/23 01:48:51;;;;;;;4.18;3.00;;;14.80;99.90;;;;;;6141703;23;20015;-84
2021/07/23 01:51:18;;;;;;;3.78;2.88;;;14.80;99.90;;;;;;6188364;23;20008;-83
2021/07/23 01:53:48;;;;;;;3.97;2.85;;;14.80;99.90;;;;;;6164897;23;20009;-83
2021/07/23 01:56:18;;;;;;;4.97;3.10;;;14.80;99.90;;;;;;6191964;23;20008;-82
2021/07/23 01:58:43;;;;;;;4.75;3.45;;;14.80;99.90;;;;;;6188613;23;20005;-84
2021/07/23 02:01:09;;;;;;;4.10;3.20;;;14.80;99.90;;;;;;6195103;23;20071;-85
2021/07/23 02:03:35;;;;;;;5.07;3.08;;;14.80;99.90;;;;;;6194607;23;20326;-84
2021/07/23 02:06:00;;;;;;;4.40;3.40;;;14.70;99.90;;;;;;6183688;23;20016;-83
2021/07/23 02:08:26;;;;;;;4.35;3.10;;;14.70;99.90;;;;;;6189249;23;20399;-84
2021/07/23 02:10:52;;;;;;;4.78;3.53;;;14.70;99.90;;;;;;6189450;23;20310;-82
2021/07/23 02:13:19;;;;;;;4.70;3.30;;;14.60;99.90;;;;;;6189163;23;20008;-84
2021/07/23 02:15:45;;;;;;;5.07;3.75;;;14.60;99.90;;;;;;6188769;23;20009;-85
2021/07/23 02:18:12;;;;;;;5.07;3.72;;;14.60;99.90;;;;;;6189705;23;20037;-84
2021/07/23 02:20:38;;;;;;;4.82;3.25;;;14.60;99.90;;;;;;6190989;23;20077;-84
2021/07/23 02:23:05;;;;;;;4.82;3.40;;;14.60;99.90;;;;;;6189562;23;20005;-85
2021/07/23 02:25:32;;;;;;;6.22;4.05;;;14.60;99.90;;;;;;6189000;23;20426;-84
2021/07/23 02:27:58;;;;;;;4.20;3.10;;;14.60;99.90;;;;;;6165593;23;20005;-85
2021/07/23 02:30:25;;;;;;;5.25;3.42;;;14.60;99.90;;;;;;6191967;23;20004;-85
2021/07/23 02:32:55;;;;;;;5.95;3.20;;;14.60;99.90;;;;;;6191605;23;20323;-84
2021/07/23 02:35:21;;;;;;;5.68;3.45;;;14.60;99.90;;;;;;6166859;23;20016;-85
2021/07/23 02:37:49;;;;;;;5.47;3.35;;;14.60;99.90;;;;;;6191199;23;20032;-84
2021/07/23 02:40:18;;;;;;;6.95;4.82;;;14.60;99.90;;;;;;6191935;23;20012;-84
2021/07/23 02:42:44;;;;;;;5.43;3.85;;;14.60;99.90;;;;;;6191252;23;20414;-84
2021/07/23 02:45:11;;;;;;;5.32;3.38;;;14.50;99.90;;;;;;6191765;23;20028;-84
2021/07/23 02:47:37;;;;;;;8.70;4.25;;;14.50;99.90;;;;;;6191044;23;20008;-84
2021/07/23 02:50:04;;;;;;;7.07;3.60;;;14.50;99.90;;;;;;6190254;23;20418;-84
2021/07/23 02:52:30;;;;;;;6.80;4.57;;;14.40;99.90;;;;;;6192840;23;20033;-83
2021/07/23 02:54:56;;;;;;;5.57;3.75;;;14.40;99.90;;;;;;6191812;23;20008;-84
2021/07/23 02:57:26;;;;;;;5.25;3.72;;;14.30;99.90;;;;;;6191325;23;20064;-83
2021/07/23 02:59:53;;;;;;;5.63;3.70;;;14.30;99.90;;;;;;6190854;23;20001;-84
2021/07/23 03:02:20;;;;;;;6.53;4.53;;;14.20;99.90;;;;;;6165828;23;20013;-84
2021/07/23 03:04:47;;;;;;;6.40;4.57;;;14.20;99.90;;;;;;6166332;23;20079;-84
2021/07/23 03:07:14;;;;;;;5.22;4.15;;;14.20;99.90;;;;;;6141415;23;20001;-84
2021/07/23 03:09:40;;;;;;;6.25;4.10;;;14.20;99.90;;;;;;6190995;23;20009;-83
2021/07/23 03:12:09;;;;;;;5.03;3.88;;;14.10;99.90;;;;;;6165690;23;20024;-85
2021/07/23 03:14:38;;;;;;;5.40;3.70;;;14.10;99.90;;;;;;6190636;23;20449;-84
2021/07/23 03:17:08;;;;;;;5.22;4.03;;;14.00;99.90;;;;;;6191582;23;20005;-84
2021/07/23 03:19:36;;;;;;;6.00;4.13;;;14.00;99.90;;;;;;6166654;23;20096;-84
2021/07/23 03:22:05;;;;;;;4.63;3.88;;;14.00;99.90;;;;;;6191363;23;20390;-84
2021/07/23 03:24:34;;;;;;;4.95;3.40;;;14.00;99.90;;;;;;6191672;23;20096;-85
2021/07/23 03:26:59;;;;;;;4.88;3.90;;;13.90;99.90;;;;;;6192758;23;20009;-84
2021/07/23 03:29:26;;;;;;;5.75;3.03;;;13.90;99.90;;;;;;6190628;23;20036;-84
2021/07/23 03:31:53;;;;;;;4.78;3.40;;;13.90;99.90;;;;;;6192762;23;20001;-85
2021/07/23 03:34:19;;;;;;;4.72;3.28;;;13.90;99.90;;;;;;6166450;23;20005;-84
2021/07/23 03:36:47;;;;;;;5.28;3.63;;;13.90;99.90;;;;;;6192155;23;20063;-83
2021/07/23 03:39:15;;;;;;;5.25;3.60;;;13.90;99.90;;;;;;6192093;23;20072;-85
2021/07/23 03:41:42;;;;;;;4.32;3.33;;;13.80;99.90;;;;;;6192761;23;19989;-83
2021/07/23 03:44:09;;;;;;;5.53;3.97;;;13.80;99.90;;;;;;6166689;23;20116;-83
2021/07/23 03:46:35;;;;;;;4.60;3.17;;;13.90;99.90;;;;;;6189915;23;20396;-84
2021/07/23 03:49:02;;;;;;;4.65;3.42;;;13.80;99.90;;;;;;6191584;23;20012;-84
2021/07/23 03:51:28;;;;;;;5.75;3.78;;;13.70;99.90;;;;;;6206693;23;20004;-84
2021/07/23 03:53:55;;;;;;;5.47;4.07;;;13.70;99.90;;;;;;6191952;23;20006;-83
2021/07/23 03:56:21;;;;;;;5.15;3.80;;;13.70;99.90;;;;;;6192016;23;20016;-82
2021/07/23 03:58:55;;;;;;;5.85;3.95;;;13.70;99.90;;;;;;6140861;23;20012;-83
2021/07/23 04:01:22;;;;;;;6.32;3.92;;;13.70;99.90;;;;;;6191266;23;20005;-83
2021/07/23 04:03:49;;;;;;;5.88;3.80;;;13.70;99.90;;;;;;6191400;23;20004;-84
2021/07/23 04:06:18;;;;;;;5.57;3.70;;;13.70;99.90;;;;;;6164744;23;20014;-84
2021/07/23 04:08:46;;;;;;;5.80;3.78;;;13.70;99.90;;;;;;6164661;23;20016;-84
2021/07/23 04:11:16;;;;;;;5.57;3.92;;;13.70;99.90;;;;;;6191712;23;19997;-83
2021/07/23 04:13:43;;;;;;;5.15;3.70;;;13.70;99.90;;;;;;6189619;23;20071;-84
2021/07/23 04:16:15;;;;;;;5.32;3.72;;;13.70;99.90;;;;;;6196975;23;20000;-83
2021/07/23 04:18:41;;;;;;;5.15;3.60;;;13.70;99.90;;;;;;6202612;23;20008;-83
2021/07/23 04:21:16;;;;;;;5.13;3.92;;;13.70;99.90;;;;;;6192461;23;20063;-84
2021/07/23 04:23:43;;;;;;;5.00;3.53;;;13.80;99.90;;;;;;6190645;23;20031;-84
2021/07/23 04:26:10;;;;;;;5.85;3.88;;;13.80;99.90;;;;;;6190070;23;20338;-85
2021/07/23 04:28:37;;;;;;;5.45;3.22;;;13.80;99.90;;;;;;6191972;23;20009;-84
2021/07/23 04:31:09;;;;;;;4.88;3.65;;;13.90;99.90;;;;;;6191666;23;20001;-85
2021/07/23 04:33:36;;;;;;;4.35;3.33;;;13.90;99.90;;;;;;6190467;23;20083;-85
2021/07/23 04:36:02;;;;;;;5.93;3.70;;;13.90;99.90;;;;;;6165779;23;20426;-84
2021/07/23 04:38:28;;;;;;;6.15;4.10;;;13.90;99.90;;;;;;6190951;23;20005;-84
2021/07/23 04:40:57;;;;;;;4.40;3.40;;;13.90;99.90;;;;;;6165558;23;20009;-87
2021/07/23 04:43:24;;;;;;;5.47;3.80;;;14.00;99.90;;;;;;6188527;23;20086;-87
2021/07/23 04:45:51;;;;;;;4.88;3.70;;;14.00;99.90;;;;;;6165424;23;20461;-86
2021/07/23 04:48:17;;;;;;;5.40;3.83;;;14.00;99.90;;;;;;6164754;23;20031;-84
2021/07/23 04:50:44;;;;;;;6.03;3.65;;;14.10;99.90;;;;;;6163969;23;20399;-84
2021/07/23 04:53:11;;;;;;;4.75;3.40;;;14.10;99.90;;;;;;6189254;23;20008;-84
2021/07/23 04:55:38;;;;;;;5.20;3.25;;;14.10;99.90;;;;;;6189163;23;20009;-85
2021/07/23 04:58:04;;;;;;;5.25;3.45;;;14.20;99.90;;;;;;6191726;23;20001;-85
2021/07/23 05:00:32;;;;;;;5.68;3.15;;;14.30;99.90;;;;;;6190030;23;20059;-85
2021/07/23 05:02:59;;;;;;;5.28;3.20;;;14.30;99.90;;;;;;6189356;23;20493;-82
2021/07/23 05:05:33;;;;;;;6.07;3.80;;;14.40;99.90;;;;;;6187857;23;20025;-82
2021/07/23 05:07:58;;;;;;;4.70;3.40;;;14.50;99.90;;;;;;6188438;23;20032;-85
2021/07/23 05:10:26;;;;;;;4.25;3.03;;;14.50;99.90;;;;;;6190031;23;19997;-85
2021/07/23 05:12:51;;;;;;;5.15;3.40;;;14.60;99.90;;;;;;6188800;23;20001;-85
2021/07/23 05:15:18;;;;;;;5.68;3.40;;;14.60;99.90;;;;;;6190048;23;20374;-82
2021/07/23 05:17:44;;;;;;;4.65;3.63;;;14.70;99.90;;;;;;6188000;23;20005;-85
2021/07/23 05:20:13;;;;;;;6.43;3.67;;;14.80;99.90;;;;;;6187766;23;20016;-85
2021/07/23 05:22:40;;;;;;;6.97;3.67;;;14.80;99.90;;;;;;6188735;23;20005;-85
2021/07/23 05:25:07;;;;;;;5.72;3.80;;;14.90;99.90;;;;;;6188980;23;20012;-85
2021/07/23 05:27:34;;;;;;;4.70;3.17;;;14.90;99.90;;;;;;6189230;23;20372;-85
2021/07/23 05:30:04;;;;;;;5.40;3.35;;;15.00;99.90;;;;;;6187940;23;20001;-83
2021/07/23 05:32:30;;;;;;;4.93;3.58;;;15.10;99.90;;;;;;6185892;23;20009;-84
2021/07/23 05:34:57;;;;;;;4.70;3.10;;;15.20;99.90;;;;;;6188317;23;20058;-85
2021/07/23 05:37:23;;;;;;;5.63;3.40;;;15.30;99.90;;;;;;6188701;23;20001;-85
2021/07/23 05:39:50;;;;;;;4.88;3.33;;;15.30;99.90;;;;;;6163107;23;20330;-85
2021/07/23 05:42:19;;;;;;;5.38;3.30;;;15.40;99.90;;;;;;6162452;23;20039;-84
2021/07/23 05:44:47;;;;;;;3.75;2.95;;;15.50;99.90;;;;;;6188846;23;20001;-85
2021/07/23 05:47:18;;;;;;;4.47;3.15;;;15.60;99.90;;;;;;6187052;23;20330;-84
2021/07/23 05:49:46;;;;;;;6.30;2.90;;;15.60;99.90;;;;;;6188263;23;20001;-84
2021/07/23 05:52:13;;;;;;;4.07;2.55;;;15.70;99.90;;;;;;6162871;23;20009;-84
2021/07/23 05:54:39;;;;;;;5.35;2.70;;;15.80;99.90;;;;;;6188510;23;20005;-84
2021/07/23 05:57:08;;;;;;;3.75;2.47;;;15.90;99.90;;;;;;6196727;23;20011;-84
2021/07/23 05:59:38;;;;;;;3.45;2.35;;;16.00;99.90;;;;;;6172476;23;20016;-83
2021/07/23 06:02:20;;;;;;;3.60;2.40;;;16.10;99.90;;;;;;6162258;23;20016;-82
2021/07/23 06:04:47;;;;;;;3.25;2.33;;;16.20;99.90;;;;;;6190084;23;20032;-84
2021/07/23 06:07:14;;;;;;;4.32;2.50;;;16.20;99.90;;;;;;6187490;23;20103;-83
2021/07/23 06:09:41;;;;;;;2.92;2.05;;;16.30;99.90;;;;;;6186793;23;20029;-85
2021/07/23 06:12:07;;;;;;;2.90;2.10;;;16.40;99.90;;;;;;6185395;23;20092;-84
2021/07/23 06:14:43;;;;;;;2.75;1.70;;;16.40;99.90;;;;;;6186390;23;20039;-83
2021/07/23 06:17:14;;;;;;;3.97;2.08;;;16.60;99.90;;;;;;6185311;23;20005;-84
2021/07/23 06:19:59;;;;;;;2.95;1.63;;;16.60;99.90;;;;;;6189279;23;20020;-84
2021/07/23 06:22:28;;;;;;;4.20;2.42;;;16.70;99.90;;;;;;6187291;23;20005;-84
2021/07/23 06:25:01;;;;;;;2.75;1.70;;;16.70;99.90;;;;;;6187767;23;20394;-85
2021/07/23 06:27:31;;;;;;;2.65;2.00;;;16.80;99.90;;;;;;6187676;23;20001;-86
2021/07/23 06:29:59;;;;;;;2.67;1.75;;;16.90;99.90;;;;;;6187011;23;20067;-84
2021/07/23 06:35:31;;;;;;;;;;;;;;;;;;;;;
2021/07/23 06:38:02;;;;;;;3.10;2.15;;;17.00;99.90;;;;;;6188325;23;20084;-85
2021/07/23 06:40:41;;;;;;;;;;;;;;;;;;;;;
2021/07/23 06:43:19;;;;;;;3.72;2.20;;;17.10;99.90;;;;;;6189301;23;20395;-86
2021/07/23 06:45:57;;;;;;;3.97;2.30;;;17.20;99.90;;;;;;6186503;23;20009;-87
2021/07/23 06:48:25;;;;;;;3.58;2.28;;;17.30;99.90;;;;;;6188426;23;20406;-83
2021/07/23 06:50:57;;;;;;;3.85;2.38;;;17.30;99.90;;;;;;6186422;23;20009;-86
2021/07/23 06:53:28;;;;;;;4.35;2.97;;;17.40;99.90;;;;;;6187863;23;20001;-87
2021/07/23 06:56:00;;;;;;;4.90;2.72;;;17.40;99.90;;;;;;6188886;23;20005;-87
2021/07/23 06:58:42;;;;;;;;;;;;;;;;;;;;;
2021/07/23 07:01:43;;;;;;;4.25;2.67;;;17.50;99.90;;;;;;6184372;23;20004;-86
2021/07/23 07:04:42;;;;;;;3.75;2.45;;;17.60;99.90;;;;;;6187953;23;20414;-86
2021/07/23 07:07:23;;;;;;;;;;;;;;;;;;;;;
2021/07/23 07:09:58;;;;;;;4.20;2.60;;;17.80;99.90;;;;;;6188866;23;20080;-84
2021/07/23 07:12:34;;;;;;;5.65;3.30;;;17.90;99.90;;;;;;6176927;23;20330;-85
2021/07/23 07:15:15;;;;;;;;;;;;;;;;;;;;;
2021/07/23 07:17:45;;;;;;;4.13;2.92;;;18.20;99.90;;;;;;6191046;23;20087;-87
2021/07/23 07:20:12;;;;;;;5.82;2.97;;;18.30;99.90;;;;;;6191378;23;20043;-88
2021/07/23 07:22:44;;;;;;;4.25;3.33;;;18.50;99.90;;;;;;6188043;23;20422;-83
2021/07/23 07:25:30;;;;;;;4.78;2.80;;;18.60;99.90;;;;;;6188095;23;20009;-86
2021/07/23 07:31:17;;;;;;;4.25;3.20;;;18.80;99.90;;;;;;6138872;23;20013;-84
2021/07/23 07:34:06;;;;;;;5.80;3.30;;;18.80;99.90;;;;;;6186686;23;20056;-85
2021/07/23 07:36:57;;;;;;;4.75;3.10;;;18.70;99.90;;;;;;6190263;23;20036;-86
2021/07/23 07:39:58;;;;;;;;;;;;;;;;;;;;;
2021/07/23 07:42:33;;;;;;;3.22;2.67;;;18.80;99.90;;;;;;6182796;23;20032;-85
2021/07/23 07:45:31;;;;;;;4.30;3.05;;;19.00;99.90;;;;;;6189368;23;20009;-84
2021/07/23 07:48:42;;;;;;;5.10;3.22;;;19.10;99.90;;;;;;6169194;23;20011;-84
2021/07/23 07:51:15;;;;;;;5.63;3.10;;;19.20;99.90;;;;;;6074915;23;20010;-85
2021/07/23 07:53:58;;;;;;;6.22;3.28;;;19.30;99.90;;;;;;6190065;23;20012;-85
2021/07/23 07:56:30;;;;;;;4.57;2.80;;;19.50;99.90;;;;;;6190588;23;20001;-85
2021/07/23 07:59:10;;;;;;;;;;;;;;;;;;;;;
2021/07/23 08:01:48;;;;;;;5.13;2.80;;;19.70;99.90;;;;;;6196958;23;20016;-84
2021/07/23 08:04:45;;;;;;;4.35;2.53;;;19.90;99.90;;;;;;6207915;23;20096;-85
2021/07/23 08:11:16;;;;;;;;;;;;;;;;;;;;;
2021/07/23 08:14:23;;;;;;;3.97;2.75;;;20.30;99.90;;;;;;6172597;23;20029;-86
2021/07/23 08:21:04;;;;;;;3.88;2.70;;;20.30;99.90;;;;;;6099339;23;20490;-85
2021/07/23 08:24:23;;;;;;;;;;;;;;;;;;;;;
2021/07/23 08:30:04;;;;;;;4.47;2.70;;;20.70;99.90;;;;;;6177051;23;20009;-86
2021/07/23 09:01:56;;;;;;;;;;;;;;;;;;;;;
2021/07/23 09:04:54;;;;;;;4.45;3.22;;;21.20;99.90;;;;;;5861585;24;20094;-86
2021/07/23 09:08:11;;;;;;;;;;;;;;;;;;;;;
2021/07/23 09:18:40;;;;;;;;;;;;;;;;;;;;;
2021/07/23 09:21:50;;;;;;;;;;;;;;;;;;;;;
2021/07/23 09:24:53;;;;;;;;;;;;;;;;;;;;;
2021/07/23 09:28:00;;;;;;;4.20;2.80;;;21.30;99.90;;;;;;6037936;23;20086;-88
2021/07/23 09:31:09;;;;;;;3.97;2.80;;;21.30;99.90;;;;;;6037670;23;20019;-85
2021/07/23 09:33:49;;;;;;;4.57;2.72;;;21.30;99.90;;;;;;6038698;23;20007;-88
2021/07/23 09:36:30;;;;;;;3.72;2.63;;;21.30;99.90;;;;;;6161869;23;20103;-87
2021/07/23 09:55:20;;;;;;;;;;;;;;;;;;;;;
2021/07/23 09:58:39;;;;;;;;;;;;;;;;;;;;;
2021/07/23 10:01:55;;;;;;;;;;;;;;;;;;;;;
2021/07/23 10:05:37;;;;;;;;;;;;;;;;;;;;;
2021/07/23 10:15:00;;;;;;;7.18;3.15;;;22.40;99.60;;;;;;6101054;23;20371;-88
2021/07/23 10:18:11;;;;;;;5.93;3.10;;;22.60;99.30;;;;;;6154903;23;20017;-86
2021/07/23 10:20:42;;;;;;;5.00;2.83;;;22.90;98.80;;;;;;6154189;23;20080;-85
2021/07/23 10:23:31;;;;;;;4.38;2.65;;;23.20;98.50;;;;;;6154397;23;20053;-85
2021/07/23 10:29:45;;;;;;;4.15;2.95;;;23.60;97.90;;;;;;6111396;23;20013;-84
2021/07/23 10:32:49;;;;;;;4.50;2.42;;;23.60;97.80;;;;;;6150477;23;20454;-85
2021/07/23 10:36:03;;;;;;;4.15;2.08;;;23.40;97.90;;;;;;6111665;23;20088;-87
2021/07/23 10:38:33;;;;;;;3.67;2.42;;;23.30;97.80;;;;;;6095709;23;20029;-86
2021/07/23 10:41:12;;;;;;;3.67;2.70;;;23.20;97.90;;;;;;6072235;23;20030;-86
2021/07/23 10:44:01;;;;;;;4.15;2.55;;;23.10;97.70;;;;;;6094754;23;20097;-86
2021/07/23 10:49:37;;;;;;;3.45;2.40;;;23.00;97.90;;;;;;6101559;23;20040;-85
2021/07/23 10:52:37;;;;;;;;;;;;;;;;;;;;;
2021/07/23 10:55:20;;;;;;;3.42;2.25;;;23.00;97.70;;;;;;6189947;23;20042;-86
2021/07/23 10:58:22;;;;;;;3.88;2.30;;;23.00;97.60;;;;;;6189109;23;20467;-86
2021/07/23 11:01:02;;;;;;;4.00;2.47;;;23.10;97.50;;;;;;6190928;23;20001;-86
2021/07/23 11:04:03;;;;;;;3.35;2.25;;;23.30;97.30;;;;;;6190025;23;20020;-85
2021/07/23 11:07:20;;;;;;;;;;;;;;;;;;;;;
2021/07/23 11:09:57;;;;;;;3.65;2.30;;;23.70;97.00;;;;;;6195789;23;20037;-87
2021/07/23 11:12:58;;;;;;;3.88;2.40;;;23.70;96.90;;;;;;6188749;23;20362;-87
2021/07/23 11:16:15;;;;;;;3.03;1.88;;;23.70;96.80;;;;;;6188871;23;20426;-87
2021/07/23 11:19:08;;;;;;;4.63;2.60;;;23.80;96.90;;;;;;6187408;23;20009;-84
2021/07/23 11:22:01;;;;;;;3.38;2.50;;;24.10;96.20;;;;;;6179228;23;20060;-84
2021/07/23 11:25:20;;;;;;;3.30;2.20;;;24.00;96.30;;;;;;6187392;23;20020;-84
2021/07/23 11:28:00;;;;;;;3.88;2.90;;;24.20;96.20;;;;;;6085825;23;20012;-83
2021/07/23 11:30:53;;;;;;;;;;;;;;;;;;;;;
2021/07/23 11:34:05;;;;;;;;;;;;;;;;;;;;;
2021/07/23 11:36:59;;;;;;;6.40;3.45;;;26.40;94.20;;;;;;6189224;23;20088;-84
2021/07/23 11:42:14;;;;;;;4.53;2.88;;;26.40;93.10;;;;;;6177991;23;20013;-85
2021/07/23 11:45:18;;;;;;;3.55;2.53;;;26.00;93.20;;;;;;6188197;23;20009;-84
2021/07/23 11:48:08;;;;;;;3.42;2.60;;;25.90;92.80;;;;;;6189738;23;20060;-84
2021/07/23 11:50:51;;;;;;;5.32;2.58;;;25.80;93.40;;;;;;6189486;23;20028;-84
2021/07/23 11:53:20;;;;;;;3.80;2.35;;;26.80;92.90;;;;;;6164628;23;20430;-84
2021/07/23 11:55:58;;;;;;;3.78;1.88;;;27.80;92.20;;;;;;6186784;23;20010;-85
2021/07/23 11:58:37;;;;;;;3.80;2.70;;;28.60;91.30;;;;;;6187247;23;20071;-85
2021/07/23 12:01:19;;;;;;;3.88;2.47;;;28.60;90.70;;;;;;6161582;23;20124;-85
2021/07/23 12:04:16;;;;;;;4.13;2.78;;;29.10;90.00;;;;;;6188558;23;20012;-83
2021/07/23 12:06:53;;;;;;;3.65;2.60;;;29.30;87.80;;;;;;6164596;23;20013;-83
2021/07/23 12:09:23;;;;;;;4.13;2.53;;;28.70;88.50;;;;;;6192322;23;20028;-83
2021/07/23 12:12:31;;;;;;;3.80;2.33;;;28.40;88.90;;;;;;6200559;23;20005;-86
2021/07/23 12:15:09;;;;;;;3.42;2.65;;;28.70;88.80;;;;;;6192045;23;20009;-86
2021/07/23 12:21:17;;;;;;;3.88;2.22;;;28.60;86.50;;;;;;6054308;23;20007;-84
2021/07/23 12:26:59;;;;;;;;;;;;;;;;;;;;;
2021/07/23 12:33:40;;;;;;;;;;;;;;;;;;;;;
2021/07/23 12:37:10;;;;;;;3.97;2.90;;;29.50;82.30;;;;;;5924875;24;20095;-86
2021/07/23 12:40:05;;;;;;;3.95;2.60;;;29.20;83.20;;;;;;5916618;24;20012;-88
2021/07/23 12:42:54;;;;;;;4.68;2.70;;;30.00;82.20;;;;;;5983560;24;20023;-86
2021/07/23 12:46:04;;;;;;;4.00;2.80;;;30.60;81.00;;;;;;5982210;24;20017;-87
2021/07/23 12:48:47;;;;;;;3.65;2.50;;;30.70;79.10;;;;;;5954130;24;20005;-87
2021/07/23 12:51:42;;;;;;;4.15;3.00;;;30.60;78.80;;;;;;6005232;23;20011;-86
2021/07/23 12:58:20;;;;;;;;;;;;;;;;;;;;;
2021/07/23 13:01:23;;;;;;;3.80;2.63;;;28.50;80.50;;;;;;6077560;23;20046;-86
2021/07/23 13:08:37;;;;;;;;;;;;;;;;;;;;;
2021/07/23 13:10:44;;;;;;;6.60;3.03;;;29.80;78.10;;;;;;6055277;23;20006;-86
2021/07/23 13:24:11;;;;;;;4.90;3.30;;;30.40;76.50;;;;;;6114993;23;20044;-87
2021/07/23 13:34:12;;;;;;;4.78;3.30;;;31.20;73.70;;;;;;6206185;23;20069;-86
2021/07/23 13:37:21;;;;;;;4.80;3.42;;;31.00;72.80;;;;;;6207334;23;20021;-85
2021/07/23 13:41:09;;;;;;;;;;;;;;;;;;;;;
2021/07/23 13:44:15;;;;;;;;;;;;;;;;;;;;;
2021/07/23 13:47:23;;;;;;;3.80;2.55;;;31.00;72.50;;;;;;6068533;23;20112;-88
2021/07/23 13:53:35;;;;;;;4.20;3.15;;;31.60;71.40;;;;;;6143806;23;20005;-86
2021/07/23 14:02:12;;;;;;;4.60;3.25;;;31.70;70.10;;;;;;6069117;23;20003;-87
2021/07/23 14:05:40;;;;;;;4.25;3.22;;;31.10;70.30;;;;;;6139335;23;20005;-87
2021/07/23 14:08:14;;;;;;;4.70;2.65;;;30.50;70.70;;;;;;6116317;23;20013;-87
2021/07/23 14:11:13;;;;;;;3.45;2.72;;;29.70;71.80;;;;;;6162676;23;20084;-87
2021/07/23 14:14:03;;;;;;;4.13;3.05;;;29.70;72.30;;;;;;6161317;23;20004;-87
2021/07/23 14:20:10;;;;;;;3.33;2.65;;;30.30;72.00;;;;;;6178574;23;20016;-86
2021/07/23 14:23:30;;;;;;;4.78;3.15;;;31.00;71.60;;;;;;6200820;23;20013;-88
2021/07/23 14:26:20;;;;;;;5.30;3.30;;;31.40;70.70;;;;;;6192493;23;20013;-87
2021/07/23 14:29:02;;;;;;;3.88;2.95;;;30.50;70.70;;;;;;6165377;23;20001;-86
2021/07/23 14:31:50;;;;;;;4.32;2.97;;;29.90;72.20;;;;;;6164979;23;20013;-87
2021/07/23 14:34:20;;;;;;;4.65;3.30;;;29.60;72.50;;;;;;6192007;23;20001;-87
2021/07/23 14:36:51;;;;;;;3.47;2.70;;;29.90;72.60;;;;;;6164995;23;20037;-85
2021/07/23 14:39:46;;;;;;;5.68;3.42;;;30.10;72.60;;;;;;6164825;23;20032;-85
2021/07/23 14:42:34;;;;;;;;;;;;;;;;;;;;;
2021/07/23 14:45:11;;;;;;;5.20;3.33;;;30.60;71.60;;;;;;6192020;23;20061;-89
2021/07/23 14:50:43;;;;;;;;;;;;;;;;;;;;;
2021/07/23 14:56:27;;;;;;;4.88;3.53;;;30.80;70.90;;;;;;6164215;23;20092;-87
2021/07/23 14:58:55;;;;;;;6.30;3.80;;;30.70;70.50;;;;;;6163765;23;20008;-86
2021/07/23 15:01:26;;;;;;;4.47;3.55;;;30.70;70.30;;;;;;6189890;23;20079;-85
2021/07/23 15:05:04;;;;;;;;;;;;;;;;;;;;;
2021/07/23 15:07:44;;;;;;;6.25;3.80;;;30.80;69.70;;;;;;6178418;23;20044;-86
2021/07/23 15:10:40;;;;;;;3.97;3.33;;;30.50;69.60;;;;;;6164012;23;20001;-87
2021/07/23 15:13:11;;;;;;;4.80;4.00;;;30.30;70.00;;;;;;6161941;23;20016;-85
2021/07/23 15:15:57;;;;;;;;;;;;;;;;;;;;;
2021/07/23 15:18:49;;;;;;;6.88;4.78;;;30.20;70.40;;;;;;6191699;23;20099;-86
2021/07/23 15:21:16;;;;;;;5.40;4.20;;;30.10;70.40;;;;;;6164203;23;20013;-86
2021/07/23 15:23:47;;;;;;;4.88;4.03;;;30.10;70.50;;;;;;6165235;23;20017;-87
2021/07/23 15:29:35;;;;;;;6.40;4.47;;;30.10;69.80;;;;;;6170581;23;20009;-85
2021/07/23 15:32:30;;;;;;;5.43;4.15;;;30.10;70.20;;;;;;6191276;23;20003;-87
2021/07/23 15:35:01;;;;;;;4.90;3.92;;;30.10;70.20;;;;;;6163132;23;20005;-85
2021/07/23 15:37:45;;;;;;;;;;;;;;;;;;;;;
2021/07/23 15:40:29;;;;;;;5.53;4.63;;;30.20;70.30;;;;;;6190651;23;20368;-86
2021/07/23 15:43:01;;;;;;;7.47;5.53;;;30.10;69.90;;;;;;6191155;23;20033;-87
2021/07/23 15:45:44;;;;;;;;;;;;;;;;;;;;;
2021/07/23 15:48:11;;;;;;;7.43;4.90;;;29.70;70.70;;;;;;6191099;23;20005;-85
2021/07/23 15:51:21;;;;;;;;;;;;;;;;;;;;;
2021/07/23 15:53:54;;;;;;;;;;;;;;;;;;;;;
2021/07/23 15:56:36;;;;;;;;;;;;;;;;;;;;;
2021/07/23 15:59:13;;;;;;;;;;;;;;;;;;;;;
2021/07/23 16:05:10;;;;;;;7.18;5.05;;;28.30;72.80;;;;;;6168662;23;20001;-85
2021/07/23 16:11:36;;;;;;;;;;;;;;;;;;;;;
2021/07/23 16:14:30;;;;;;;8.32;5.78;;;27.40;74.30;;;;;;6023423;23;20030;-85
2021/07/23 16:20:21;;;;;;;8.85;6.03;;;27.10;74.70;;;;;;6128271;23;20009;-85
2021/07/23 16:23:03;;;;;;;8.32;5.13;;;26.80;75.00;;;;;;6101661;23;20010;-84
2021/07/23 16:25:40;;;;;;;10.73;6.10;;;26.80;75.40;;;;;;6095725;23;20021;-85
2021/07/23 16:28:08;;;;;;;8.77;5.45;;;26.70;75.60;;;;;;6074201;23;20010;-83
2021/07/23 16:30:59;;;;;;;7.00;5.57;;;26.50;76.40;;;;;;6075202;23;20428;-85
2021/07/23 16:33:35;;;;;;;;;;;;;;;;;;;;;
2021/07/23 16:36:02;;;;;;;7.40;5.60;;;26.20;77.90;;;;;;6092258;23;20081;-85
2021/07/23 16:39:06;;;;;;;;;;;;;;;;;;;;;
2021/07/23 16:42:05;;;;;;;;;;;26.30;78.70;;;;;;6105495;23;20030;-85
2021/07/23 16:47:51;;;;;;;6.85;5.13;;;26.10;79.80;;;;;;5996855;23;20018;-87
2021/07/23 16:50:52;;;;;;;7.85;5.50;;;26.30;80.20;;;;;;6113140;23;20005;-86
2021/07/23 16:53:49;;;;;;;;;;;;;;;;;;;;;
2021/07/23 16:56:56;;;;;;;8.75;5.75;;;26.30;80.10;;;;;;6069830;23;20086;-87
2021/07/23 17:00:02;;;;;;;7.15;4.72;;;26.30;80.30;;;;;;6028093;23;20411;-86
2021/07/23 17:02:51;;;;;;;7.25;4.85;;;26.40;80.80;;;;;;6069959;23;20007;-85
2021/07/23 17:05:24;;;;;;;7.22;5.13;;;26.40;81.20;;;;;;6153636;23;20035;-85
2021/07/23 17:08:33;;;;;;;;;;;;;;;;;;;;;
2021/07/23 17:11:11;;;;;;;;;;;;;;;;;;;;;
2021/07/23 17:13:50;;;;;;;6.45;4.95;;;26.00;81.30;;;;;;6160463;23;20036;-86
2021/07/23 17:17:01;;;;;;;5.72;4.25;;;26.00;81.50;;;;;;6134115;23;20009;-85